AFR7501 EDDF-LSGG
Flight info
| Callsign | AFR7501 |
|---|---|
| Flight time | 0h 49m |
| Altitude | 29000 |
| Route | ANEKI2L/18 ANEKI Y163 HERBI Y164 MOPAN/N0422F310 DCT LUTIX DCT BENOT |
| Aircraft | A320/M-SDE3FGHIRWY/LB1 |
Departure
| Time | 2026-05-04 19:47 |
|---|---|
| Airport | Frankfurt Main Airport (EDDF) |
Arrival
| Time | 2026-05-04 20:37 |
|---|---|
| Airport | Geneva International Airport (LSGG) |
| Time | Latitude | Longitude | Altitude | Speed | Heading |
|---|---|---|---|---|---|
| 2026-05-04 18:36 | 50.04735 | 8.56736 | 362 ft | 0 kts | 117° |
| 2026-05-04 19:23 | 50.04746 | 8.56706 | 365 ft | 2 kts | 152° |
| 2026-05-04 19:23 | 50.04756 | 8.56700 | 359 ft | 2 kts | 199° |
| 2026-05-04 19:23 | 50.04760 | 8.56701 | 362 ft | 0 kts | 211° |
| 2026-05-04 19:23 | 50.04756 | 8.56697 | 357 ft | 1 kts | 211° |
| 2026-05-04 19:24 | 50.04751 | 8.56693 | 357 ft | 0 kts | 211° |
| 2026-05-04 19:36 | 50.04733 | 8.56673 | 364 ft | 10 kts | 217° |
| 2026-05-04 19:37 | 50.04699 | 8.56572 | 360 ft | 9 kts | 255° |
| 2026-05-04 19:37 | 50.04675 | 8.56473 | 358 ft | 15 kts | 248° |
| 2026-05-04 19:37 | 50.04623 | 8.56264 | 360 ft | 27 kts | 249° |
| 2026-05-04 19:37 | 50.04571 | 8.56058 | 358 ft | 16 kts | 248° |
| 2026-05-04 19:38 | 50.04479 | 8.55937 | 364 ft | 20 kts | 195° |
| 2026-05-04 19:38 | 50.04342 | 8.55932 | 355 ft | 19 kts | 159° |
| 2026-05-04 19:38 | 50.04261 | 8.55960 | 354 ft | 18 kts | 188° |
| 2026-05-04 19:38 | 50.04219 | 8.55846 | 351 ft | 14 kts | 269° |
| 2026-05-04 19:39 | 50.04172 | 8.55647 | 359 ft | 25 kts | 247° |
| 2026-05-04 19:39 | 50.04097 | 8.55356 | 360 ft | 30 kts | 250° |
| 2026-05-04 19:39 | 50.04042 | 8.55121 | 360 ft | 20 kts | 250° |
| 2026-05-04 19:39 | 50.03991 | 8.54897 | 362 ft | 25 kts | 250° |
| 2026-05-04 19:40 | 50.03927 | 8.54639 | 358 ft | 25 kts | 249° |
| 2026-05-04 19:40 | 50.03876 | 8.54424 | 360 ft | 17 kts | 250° |
| 2026-05-04 19:40 | 50.03839 | 8.54291 | 362 ft | 9 kts | 243° |
| 2026-05-04 19:40 | 50.03823 | 8.54243 | 365 ft | 5 kts | 239° |
| 2026-05-04 19:41 | 50.03786 | 8.54153 | 365 ft | 17 kts | 241° |
| 2026-05-04 19:41 | 50.03740 | 8.54000 | 364 ft | 9 kts | 252° |
| 2026-05-04 19:41 | 50.03724 | 8.53922 | 363 ft | 13 kts | 252° |
| 2026-05-04 19:41 | 50.03675 | 8.53694 | 365 ft | 29 kts | 251° |
| 2026-05-04 19:42 | 50.03606 | 8.53372 | 368 ft | 31 kts | 251° |
| 2026-05-04 19:42 | 50.03530 | 8.53098 | 368 ft | 27 kts | 245° |
| 2026-05-04 19:42 | 50.03474 | 8.52883 | 374 ft | 21 kts | 248° |
| 2026-05-04 19:42 | 50.03453 | 8.52801 | 377 ft | 0 kts | 248° |
| 2026-05-04 19:44 | 50.03453 | 8.52800 | 377 ft | 0 kts | 248° |
| 2026-05-04 19:45 | 50.03449 | 8.52786 | 378 ft | 0 kts | 248° |
| 2026-05-04 19:45 | 50.03449 | 8.52783 | 378 ft | 1 kts | 248° |
| 2026-05-04 19:45 | 50.03448 | 8.52782 | 378 ft | 2 kts | 248° |
| 2026-05-04 19:46 | 50.03423 | 8.52691 | 379 ft | 12 kts | 244° |
| 2026-05-04 19:46 | 50.03383 | 8.52615 | 378 ft | 7 kts | 208° |
| 2026-05-04 19:46 | 50.03345 | 8.52598 | 376 ft | 4 kts | 189° |
| 2026-05-04 19:46 | 50.03188 | 8.52596 | 371 ft | 57 kts | 179° |
| 2026-05-04 19:47 | 50.02565 | 8.52603 | 372 ft | 117 kts | 179° |
| 2026-05-04 19:47 | 50.01583 | 8.52606 | 373 ft | 161 kts | 179° |
| 2026-05-04 19:47 | 50.00491 | 8.52743 | 984 ft | 155 kts | 176° |
| 2026-05-04 19:47 | 49.99409 | 8.52829 | 1477 ft | 157 kts | 179° |
| 2026-05-04 19:48 | 49.98300 | 8.52879 | 1890 ft | 169 kts | 179° |
| 2026-05-04 19:48 | 49.97051 | 8.52934 | 2175 ft | 190 kts | 179° |
| 2026-05-04 19:48 | 49.95651 | 8.53007 | 2505 ft | 213 kts | 178° |
| 2026-05-04 19:48 | 49.94102 | 8.53096 | 2993 ft | 229 kts | 178° |
| 2026-05-04 19:49 | 49.92486 | 8.53192 | 3705 ft | 235 kts | 178° |
| 2026-05-04 19:49 | 49.90875 | 8.53293 | 3942 ft | 226 kts | 178° |
| 2026-05-04 19:49 | 49.89319 | 8.53395 | 4006 ft | 223 kts | 178° |
| 2026-05-04 19:49 | 49.87769 | 8.53498 | 4016 ft | 222 kts | 178° |
| 2026-05-04 19:50 | 49.86222 | 8.53601 | 4010 ft | 223 kts | 178° |
| 2026-05-04 19:50 | 49.84693 | 8.53703 | 4007 ft | 222 kts | 178° |
| 2026-05-04 19:50 | 49.83128 | 8.53808 | 4004 ft | 222 kts | 178° |
| 2026-05-04 19:50 | 49.81581 | 8.53908 | 4011 ft | 222 kts | 178° |
| 2026-05-04 19:51 | 49.80062 | 8.54006 | 4020 ft | 222 kts | 178° |
| 2026-05-04 19:51 | 49.78514 | 8.54112 | 4015 ft | 223 kts | 178° |
| 2026-05-04 19:51 | 49.76969 | 8.53990 | 4022 ft | 222 kts | 185° |
| 2026-05-04 19:51 | 49.75439 | 8.53787 | 4019 ft | 222 kts | 185° |
| 2026-05-04 19:52 | 49.73887 | 8.53581 | 4018 ft | 222 kts | 185° |
| 2026-05-04 19:52 | 49.72354 | 8.53377 | 4017 ft | 222 kts | 185° |
| 2026-05-04 19:52 | 49.70810 | 8.53174 | 4020 ft | 222 kts | 185° |
| 2026-05-04 19:52 | 49.69274 | 8.52973 | 4026 ft | 222 kts | 185° |
| 2026-05-04 19:53 | 49.67736 | 8.52774 | 4028 ft | 222 kts | 185° |
| 2026-05-04 19:53 | 49.66192 | 8.52574 | 4032 ft | 222 kts | 185° |
| 2026-05-04 19:53 | 49.64658 | 8.52372 | 4029 ft | 222 kts | 185° |
| 2026-05-04 19:53 | 49.63113 | 8.52164 | 4029 ft | 222 kts | 185° |
| 2026-05-04 19:54 | 49.61597 | 8.51960 | 4029 ft | 222 kts | 185° |
| 2026-05-04 19:54 | 49.60041 | 8.51752 | 4037 ft | 222 kts | 185° |
| 2026-05-04 19:54 | 49.58527 | 8.51551 | 4038 ft | 221 kts | 185° |
| 2026-05-04 19:54 | 49.56996 | 8.51349 | 4036 ft | 222 kts | 185° |
| 2026-05-04 19:55 | 49.55449 | 8.51144 | 4031 ft | 222 kts | 185° |
| 2026-05-04 19:55 | 49.53924 | 8.50942 | 4036 ft | 221 kts | 185° |
| 2026-05-04 19:55 | 49.52372 | 8.50739 | 4038 ft | 222 kts | 185° |
| 2026-05-04 19:55 | 49.50844 | 8.50539 | 4040 ft | 221 kts | 185° |
| 2026-05-04 19:56 | 49.49308 | 8.50341 | 4036 ft | 221 kts | 185° |
| 2026-05-04 19:56 | 49.47776 | 8.50144 | 4037 ft | 222 kts | 185° |
| 2026-05-04 19:56 | 49.46237 | 8.49946 | 4040 ft | 222 kts | 185° |
| 2026-05-04 19:56 | 49.44687 | 8.49745 | 4410 ft | 225 kts | 185° |
| 2026-05-04 19:57 | 49.43139 | 8.49543 | 5356 ft | 221 kts | 185° |
| 2026-05-04 19:57 | 49.41638 | 8.49342 | 6256 ft | 219 kts | 186° |
| 2026-05-04 19:57 | 49.40092 | 8.49137 | 7092 ft | 220 kts | 186° |
| 2026-05-04 19:57 | 49.38567 | 8.48937 | 7882 ft | 221 kts | 186° |
| 2026-05-04 19:58 | 49.37028 | 8.48734 | 8668 ft | 223 kts | 186° |
| 2026-05-04 19:58 | 49.35486 | 8.48529 | 9468 ft | 225 kts | 186° |
| 2026-05-04 19:58 | 49.33904 | 8.48320 | 10216 ft | 227 kts | 186° |
| 2026-05-04 19:58 | 49.32332 | 8.48115 | 10909 ft | 231 kts | 186° |
| 2026-05-04 19:59 | 49.30717 | 8.47904 | 11590 ft | 235 kts | 186° |
| 2026-05-04 19:59 | 49.29151 | 8.47703 | 12135 ft | 243 kts | 185° |
| 2026-05-04 19:59 | 49.27719 | 8.47520 | 12635 ft | 245 kts | 187° |
| 2026-05-04 19:59 | 49.26028 | 8.47299 | 13553 ft | 242 kts | 187° |
| 2026-05-04 20:00 | 49.24382 | 8.47085 | 14252 ft | 244 kts | 187° |
| 2026-05-04 20:00 | 49.22681 | 8.46864 | 14902 ft | 246 kts | 187° |
| 2026-05-04 20:00 | 49.20960 | 8.46643 | 15531 ft | 249 kts | 188° |
| 2026-05-04 20:00 | 49.19228 | 8.46419 | 16173 ft | 252 kts | 188° |
| 2026-05-04 20:01 | 49.17479 | 8.46188 | 16823 ft | 254 kts | 188° |
| 2026-05-04 20:01 | 49.15698 | 8.45954 | 17471 ft | 256 kts | 188° |
| 2026-05-04 20:01 | 49.13920 | 8.45720 | 18113 ft | 258 kts | 188° |
| 2026-05-04 20:01 | 49.12114 | 8.45484 | 18683 ft | 261 kts | 188° |
| 2026-05-04 20:02 | 49.10300 | 8.45248 | 19257 ft | 263 kts | 188° |
| 2026-05-04 20:02 | 49.08476 | 8.45010 | 19843 ft | 265 kts | 188° |
| 2026-05-04 20:02 | 49.06630 | 8.44741 | 20438 ft | 267 kts | 191° |
| 2026-05-04 20:02 | 49.04823 | 8.44204 | 21008 ft | 268 kts | 195° |
| 2026-05-04 20:03 | 49.03001 | 8.43559 | 21482 ft | 276 kts | 195° |
| 2026-05-04 20:03 | 49.01062 | 8.42880 | 21611 ft | 294 kts | 195° |
| 2026-05-04 20:03 | 48.99058 | 8.42185 | 21736 ft | 311 kts | 195° |
| 2026-05-04 20:03 | 48.96893 | 8.41434 | 21874 ft | 328 kts | 194° |
| 2026-05-04 20:04 | 48.94584 | 8.40635 | 22010 ft | 344 kts | 194° |
| 2026-05-04 20:04 | 48.92222 | 8.39816 | 22144 ft | 359 kts | 194° |
| 2026-05-04 20:04 | 48.89705 | 8.38944 | 22268 ft | 375 kts | 194° |
| 2026-05-04 20:04 | 48.87140 | 8.38052 | 22414 ft | 390 kts | 194° |
| 2026-05-04 20:05 | 48.84462 | 8.37122 | 22586 ft | 402 kts | 194° |
| 2026-05-04 20:05 | 48.81688 | 8.36163 | 22990 ft | 408 kts | 194° |
| 2026-05-04 20:05 | 48.78917 | 8.35212 | 23470 ft | 412 kts | 194° |
| 2026-05-04 20:05 | 48.76100 | 8.34230 | 23898 ft | 415 kts | 194° |
| 2026-05-04 20:06 | 48.73306 | 8.33222 | 24333 ft | 417 kts | 195° |
| 2026-05-04 20:06 | 48.70467 | 8.32174 | 24794 ft | 418 kts | 195° |
| 2026-05-04 20:06 | 48.67634 | 8.31116 | 25218 ft | 420 kts | 195° |
| 2026-05-04 20:06 | 48.64797 | 8.30064 | 25647 ft | 421 kts | 195° |
| 2026-05-04 20:07 | 48.62117 | 8.29080 | 26049 ft | 423 kts | 195° |
| 2026-05-04 20:07 | 48.59657 | 8.28184 | 26372 ft | 424 kts | 194° |
| 2026-05-04 20:07 | 48.56753 | 8.27135 | 26657 ft | 428 kts | 195° |
| 2026-05-04 20:07 | 48.53858 | 8.26095 | 27102 ft | 427 kts | 195° |
| 2026-05-04 20:08 | 48.50978 | 8.25061 | 27646 ft | 424 kts | 195° |
| 2026-05-04 20:08 | 48.48119 | 8.24029 | 28190 ft | 421 kts | 195° |
| 2026-05-04 20:08 | 48.45280 | 8.22991 | 28733 ft | 419 kts | 195° |
| 2026-05-04 20:08 | 48.42473 | 8.21956 | 29267 ft | 416 kts | 195° |
| 2026-05-04 20:09 | 48.39646 | 8.20917 | 29774 ft | 414 kts | 195° |
| 2026-05-04 20:09 | 48.36849 | 8.19894 | 30273 ft | 412 kts | 195° |
| 2026-05-04 20:09 | 48.34106 | 8.18895 | 30676 ft | 411 kts | 195° |
| 2026-05-04 20:09 | 48.31300 | 8.17878 | 31072 ft | 411 kts | 195° |
| 2026-05-04 20:10 | 48.28551 | 8.16883 | 31468 ft | 410 kts | 195° |
| 2026-05-04 20:10 | 48.25791 | 8.15860 | 31850 ft | 409 kts | 198° |
| 2026-05-04 20:10 | 48.23135 | 8.14357 | 32248 ft | 407 kts | 207° |
| 2026-05-04 20:10 | 48.20608 | 8.12476 | 32640 ft | 406 kts | 207° |
| 2026-05-04 20:11 | 48.18072 | 8.10583 | 33032 ft | 406 kts | 207° |
| 2026-05-04 20:11 | 48.15542 | 8.08707 | 33450 ft | 405 kts | 207° |
| 2026-05-04 20:11 | 48.13021 | 8.06845 | 33868 ft | 405 kts | 207° |
| 2026-05-04 20:11 | 48.10494 | 8.04983 | 34248 ft | 404 kts | 207° |
| 2026-05-04 20:12 | 48.07981 | 8.03134 | 34540 ft | 404 kts | 207° |
| 2026-05-04 20:12 | 48.05452 | 8.01277 | 34841 ft | 404 kts | 207° |
| 2026-05-04 20:12 | 48.02933 | 7.99432 | 35164 ft | 403 kts | 207° |
| 2026-05-04 20:12 | 48.00412 | 7.97583 | 35487 ft | 403 kts | 207° |
| 2026-05-04 20:13 | 47.97896 | 7.95733 | 35782 ft | 403 kts | 207° |
| 2026-05-04 20:13 | 47.92860 | 7.92027 | 35803 ft | 403 kts | 207° |
| 2026-05-04 20:13 | 47.90349 | 7.90187 | 35957 ft | 404 kts | 207° |
| 2026-05-04 20:14 | 47.87818 | 7.88339 | 35995 ft | 404 kts | 207° |
| 2026-05-04 20:14 | 47.83629 | 7.85291 | 35994 ft | 404 kts | 207° |
| 2026-05-04 20:15 | 47.78580 | 7.81617 | 35999 ft | 404 kts | 207° |
| 2026-05-04 20:15 | 47.73536 | 7.77949 | 35995 ft | 404 kts | 207° |
| 2026-05-04 20:16 | 47.68470 | 7.74280 | 36002 ft | 404 kts | 207° |
| 2026-05-04 20:16 | 47.63426 | 7.70630 | 36001 ft | 404 kts | 207° |
| 2026-05-04 20:17 | 47.58354 | 7.66977 | 36001 ft | 405 kts | 207° |
| 2026-05-04 20:17 | 47.53327 | 7.63351 | 36000 ft | 405 kts | 207° |
| 2026-05-04 20:18 | 47.48233 | 7.59683 | 36000 ft | 405 kts | 207° |
| 2026-05-04 20:18 | 47.43146 | 7.56035 | 35610 ft | 409 kts | 207° |
| 2026-05-04 20:18 | 47.40558 | 7.54181 | 35358 ft | 414 kts | 207° |
| 2026-05-04 20:19 | 47.38004 | 7.52357 | 35118 ft | 415 kts | 207° |
| 2026-05-04 20:19 | 47.35393 | 7.50495 | 34795 ft | 415 kts | 207° |
| 2026-05-04 20:19 | 47.32793 | 7.48644 | 34098 ft | 416 kts | 207° |
| 2026-05-04 20:19 | 47.30173 | 7.46778 | 33252 ft | 417 kts | 207° |
| 2026-05-04 20:20 | 47.27563 | 7.44920 | 32475 ft | 417 kts | 207° |
| 2026-05-04 20:20 | 47.24944 | 7.43054 | 31633 ft | 417 kts | 206° |
| 2026-05-04 20:20 | 47.22323 | 7.41191 | 30800 ft | 418 kts | 206° |
| 2026-05-04 20:20 | 47.19706 | 7.39324 | 29928 ft | 420 kts | 207° |
| 2026-05-04 20:21 | 47.17218 | 7.37030 | 28921 ft | 421 kts | 216° |
| 2026-05-04 20:21 | 47.15016 | 7.34161 | 27807 ft | 426 kts | 225° |
| 2026-05-04 20:21 | 47.11276 | 7.27387 | 25579 ft | 433 kts | 230° |
| 2026-05-04 20:22 | 47.09395 | 7.23922 | 24595 ft | 434 kts | 230° |
| 2026-05-04 20:22 | 47.07496 | 7.20444 | 23780 ft | 430 kts | 230° |
| 2026-05-04 20:22 | 47.05649 | 7.17068 | 22904 ft | 426 kts | 230° |
| 2026-05-04 20:22 | 47.03807 | 7.13703 | 22042 ft | 421 kts | 230° |
| 2026-05-04 20:23 | 47.01989 | 7.10377 | 21212 ft | 417 kts | 230° |
| 2026-05-04 20:23 | 47.00150 | 7.07009 | 20389 ft | 414 kts | 230° |
| 2026-05-04 20:23 | 46.98388 | 7.03775 | 19609 ft | 411 kts | 230° |
| 2026-05-04 20:23 | 46.96611 | 7.00519 | 18833 ft | 408 kts | 230° |
| 2026-05-04 20:24 | 46.94852 | 6.97305 | 18131 ft | 403 kts | 231° |
| 2026-05-04 20:24 | 46.93138 | 6.94220 | 17391 ft | 399 kts | 227° |
| 2026-05-04 20:24 | 46.91115 | 6.91443 | 16647 ft | 395 kts | 217° |
| 2026-05-04 20:24 | 46.88805 | 6.89299 | 15966 ft | 393 kts | 207° |
| 2026-05-04 20:25 | 46.86310 | 6.87683 | 15031 ft | 396 kts | 203° |
| 2026-05-04 20:25 | 46.83754 | 6.86130 | 14193 ft | 398 kts | 202° |
| 2026-05-04 20:25 | 46.81196 | 6.84594 | 13487 ft | 396 kts | 202° |
| 2026-05-04 20:25 | 46.78693 | 6.83102 | 13097 ft | 384 kts | 202° |
| 2026-05-04 20:26 | 46.76232 | 6.81638 | 12507 ft | 378 kts | 203° |
| 2026-05-04 20:26 | 46.73825 | 6.80203 | 11916 ft | 372 kts | 202° |
| 2026-05-04 20:26 | 46.71434 | 6.78780 | 11257 ft | 367 kts | 202° |
| 2026-05-04 20:26 | 46.69074 | 6.77377 | 10359 ft | 369 kts | 202° |
| 2026-05-04 20:27 | 46.66741 | 6.75813 | 9472 ft | 370 kts | 210° |
| 2026-05-04 20:27 | 46.64684 | 6.73582 | 8660 ft | 368 kts | 223° |
| 2026-05-04 20:27 | 46.62946 | 6.70853 | 7818 ft | 367 kts | 227° |
| 2026-05-04 20:27 | 46.61253 | 6.68092 | 7186 ft | 362 kts | 227° |
| 2026-05-04 20:28 | 46.59615 | 6.65424 | 7048 ft | 343 kts | 227° |
| 2026-05-04 20:28 | 46.58100 | 6.62962 | 7068 ft | 321 kts | 227° |
| 2026-05-04 20:28 | 46.56637 | 6.60588 | 7077 ft | 303 kts | 226° |
| 2026-05-04 20:28 | 46.55289 | 6.58405 | 7076 ft | 287 kts | 226° |
| 2026-05-04 20:29 | 46.53975 | 6.56275 | 7068 ft | 273 kts | 226° |
| 2026-05-04 20:29 | 46.52734 | 6.54268 | 7076 ft | 270 kts | 226° |
| 2026-05-04 20:29 | 46.51479 | 6.52244 | 7069 ft | 266 kts | 226° |
| 2026-05-04 20:29 | 46.50280 | 6.50309 | 7069 ft | 251 kts | 226° |
| 2026-05-04 20:30 | 46.49141 | 6.48470 | 7064 ft | 237 kts | 226° |
| 2026-05-04 20:30 | 46.48072 | 6.46744 | 7075 ft | 225 kts | 226° |
| 2026-05-04 20:30 | 46.47030 | 6.45064 | 7074 ft | 223 kts | 226° |
| 2026-05-04 20:30 | 46.45973 | 6.43422 | 6995 ft | 219 kts | 224° |
| 2026-05-04 20:31 | 46.44921 | 6.41872 | 6855 ft | 215 kts | 224° |
| 2026-05-04 20:31 | 46.43865 | 6.40341 | 6676 ft | 213 kts | 223° |
| 2026-05-04 20:31 | 46.42817 | 6.38822 | 6423 ft | 212 kts | 223° |
| 2026-05-04 20:31 | 46.41775 | 6.37311 | 6128 ft | 212 kts | 223° |
| 2026-05-04 20:32 | 46.40739 | 6.35804 | 5845 ft | 210 kts | 223° |
| 2026-05-04 20:32 | 46.39712 | 6.34308 | 5545 ft | 209 kts | 223° |
| 2026-05-04 20:32 | 46.38699 | 6.32829 | 5264 ft | 208 kts | 224° |
| 2026-05-04 20:32 | 46.37671 | 6.31327 | 5005 ft | 206 kts | 224° |
| 2026-05-04 20:33 | 46.36683 | 6.29874 | 4716 ft | 202 kts | 225° |
| 2026-05-04 20:33 | 46.35720 | 6.28451 | 4400 ft | 198 kts | 225° |
| 2026-05-04 20:33 | 46.34762 | 6.27038 | 4132 ft | 194 kts | 225° |
| 2026-05-04 20:33 | 46.33829 | 6.25661 | 3866 ft | 189 kts | 225° |
| 2026-05-04 20:34 | 46.32939 | 6.24348 | 3621 ft | 177 kts | 225° |
| 2026-05-04 20:34 | 46.32098 | 6.23106 | 3391 ft | 167 kts | 225° |
| 2026-05-04 20:34 | 46.31307 | 6.21940 | 3175 ft | 158 kts | 225° |
| 2026-05-04 20:34 | 46.30561 | 6.20839 | 2962 ft | 149 kts | 225° |
| 2026-05-04 20:35 | 46.29860 | 6.19806 | 2754 ft | 140 kts | 226° |
| 2026-05-04 20:35 | 46.29205 | 6.18841 | 2570 ft | 125 kts | 226° |
| 2026-05-04 20:35 | 46.28607 | 6.17961 | 2194 ft | 126 kts | 226° |
| 2026-05-04 20:35 | 46.27950 | 6.16997 | 1908 ft | 147 kts | 227° |
| 2026-05-04 20:36 | 46.27187 | 6.15868 | 2019 ft | 166 kts | 225° |
| 2026-05-04 20:36 | 46.26388 | 6.14705 | 1866 ft | 157 kts | 226° |
| 2026-05-04 20:36 | 46.25653 | 6.13595 | 1536 ft | 148 kts | 227° |
| 2026-05-04 20:36 | 46.24917 | 6.12509 | 1465 ft | 155 kts | 224° |
| 2026-05-04 20:37 | 46.24218 | 6.11494 | 1372 ft | 113 kts | 225° |
| 2026-05-04 20:37 | 46.24003 | 6.11179 | 1378 ft | 0 kts | 225° |